Time;durP1;ratioP1;P1;durP2;ratioP2;P2;SDS_P1;SDS_P2;PMS_P1;PMS_P2;Temp;Humidity;BMP_temperature;BMP_pressure;BME280_temperature;BME280_humidity;BME280_pressure;Samples;Min_cycle;Max_cycle;Signal;HPM_P1;HPM_P2
2021/12/20 00:02:07;;;;;;;11.40;4.67;;;;;;;0.66;79.52;96791.92;1730087;81;27455;-82
2021/12/20 00:04:34;;;;;;;14.75;4.50;;;;;;;0.65;79.44;96789.42;1726609;83;25739;-80
2021/12/20 00:07:00;;;;;;;10.45;4.47;;;;;;;0.59;79.42;96787.44;1727071;82;25701;-80
2021/12/20 00:09:27;;;;;;;8.83;4.72;;;;;;;0.59;79.42;96783.45;1723127;83;26500;-81
2021/12/20 00:11:54;;;;;;;10.28;4.25;;;;;;;0.64;79.40;96797.05;1726995;82;25729;-80
2021/12/20 00:14:20;;;;;;;11.63;4.50;;;;;;;0.64;79.25;96799.71;1691918;84;28251;-80
2021/12/20 00:16:47;;;;;;;17.12;4.97;;;;;;;0.59;79.22;96809.52;1723165;83;25710;-81
2021/12/20 00:19:14;;;;;;;9.80;4.55;;;;;;;0.57;79.21;96812.83;1726903;82;25757;-81
2021/12/20 00:21:41;;;;;;;11.22;4.40;;;;;;;0.53;79.27;96805.34;1691824;84;27153;-80
2021/12/20 00:24:07;;;;;;;10.32;5.00;;;;;;;0.53;79.28;96813.30;1723401;83;25727;-80
2021/12/20 00:26:34;;;;;;;11.83;4.67;;;;;;;0.52;79.29;96812.97;1727040;82;27373;-80
2021/12/20 00:29:01;;;;;;;11.48;4.92;;;;;;;0.53;79.31;96819.45;1691867;84;25732;-80
2021/12/20 00:31:27;;;;;;;11.70;4.60;;;;;;;0.54;79.23;96814.97;1723008;83;25272;-80
2021/12/20 00:33:54;;;;;;;11.30;5.22;;;;;;;0.54;79.22;96814.97;1732708;81;25745;-80
2021/12/20 00:36:26;;;;;;;14.47;4.90;;;;;;;0.56;79.21;96815.64;1692108;84;26267;-80
2021/12/20 00:41:37;;;;;;;10.08;4.83;;;;;;;0.54;79.10;96818.95;1726605;82;25755;-81
2021/12/20 00:44:04;;;;;;;16.23;6.20;;;;;;;0.50;78.99;96825.58;1692027;84;25793;-80
2021/12/20 00:46:31;;;;;;;13.00;5.03;;;;;;;0.49;78.95;96822.58;1723277;83;26498;-81
2021/12/20 00:48:57;;;;;;;15.45;5.67;;;;;;;0.44;78.95;96822.27;1726940;82;25771;-82
2021/12/20 00:51:24;;;;;;;17.25;5.80;;;;;;;0.32;78.99;96823.89;1692042;84;28222;-80
2021/12/20 00:53:50;;;;;;;15.60;6.10;;;;;;;0.28;79.13;96825.20;1723235;83;25758;-80
2021/12/20 00:56:17;;;;;;;13.78;6.03;;;;;;;0.31;79.03;96832.84;1726896;82;25754;-81
2021/12/20 00:58:44;;;;;;;13.08;6.30;;;;;;;0.29;79.04;96825.53;1691691;83;25812;-81
2021/12/20 01:01:11;;;;;;;11.20;5.90;;;;;;;0.33;79.14;96826.89;1723406;83;25757;-79
2021/12/20 01:03:37;;;;;;;13.55;6.80;;;;;;;0.35;78.99;96827.56;1734415;81;27424;-80
2021/12/20 01:06:05;;;;;;;15.53;6.30;;;;;;;0.28;78.98;96826.53;1692024;84;25750;-80
2021/12/20 01:08:36;;;;;;;12.50;5.95;;;;;;;0.27;79.02;96825.36;1728240;81;25794;-80
2021/12/20 01:11:01;;;;;;;11.83;6.22;;;;;;;0.25;79.00;96830.82;1727261;81;25768;-79
2021/12/20 01:13:30;;;;;;;14.28;6.83;;;;;;;0.20;79.07;96831.82;1692079;83;25720;-80
2021/12/20 01:16:00;;;;;;;17.35;7.08;;;;;;;0.26;79.10;96837.80;1723210;83;28324;-79
2021/12/20 01:18:27;;;;;;;12.40;6.17;;;;;;;0.23;79.04;96836.81;1726904;80;25738;-80
2021/12/20 01:20:53;;;;;;;14.15;6.15;;;;;;;0.24;78.95;96821.19;1692119;84;25759;-80
2021/12/20 01:23:20;;;;;;;13.18;6.00;;;;;;;0.24;78.87;96834.47;1723131;83;26315;-81
2021/12/20 01:25:48;;;;;;;11.40;6.03;;;;;;;0.22;78.84;96832.50;1726906;81;25758;-82
2021/12/20 01:28:15;;;;;;;11.95;5.78;;;;;;;0.24;78.78;96847.73;1691734;84;27394;-81
2021/12/20 01:30:42;;;;;;;12.75;5.80;;;;;;;0.24;78.66;96829.69;1722906;83;25666;-81
2021/12/20 01:33:11;;;;;;;13.58;5.85;;;;;;;0.20;78.47;96825.19;1726890;82;25787;-80
2021/12/20 01:35:38;;;;;;;11.05;4.95;;;;;;;0.17;78.48;96824.17;1692131;84;26407;-80
2021/12/20 01:38:26;;;;;;;9.10;4.90;;;;;;;0.17;78.38;96816.21;1723272;83;25802;-79
2021/12/20 01:40:53;;;;;;;12.13;6.30;;;;;;;0.20;78.34;96819.88;1727438;82;27473;-79
2021/12/20 01:43:20;;;;;;;10.20;5.22;;;;;;;0.17;78.33;96815.37;1729246;82;26507;-79
2021/12/20 01:45:49;;;;;;;10.53;5.60;;;;;;;0.13;78.24;96812.20;1729439;82;25810;-79
2021/12/20 01:48:19;;;;;;;8.50;4.62;;;;;;;0.09;78.25;96800.27;1729426;82;25754;-80
2021/12/20 01:51:43;;;;;;;8.70;4.55;;;;;;;0.14;78.25;96809.89;1729252;82;25817;-79
2021/12/20 01:53:23;;;;;;;10.98;5.00;;;;;;;0.12;78.08;96807.09;1723564;82;28221;-80
2021/12/20 01:55:52;;;;;;;8.15;4.50;;;;;;;0.17;78.12;96812.23;1729167;82;25789;-80
2021/12/20 01:58:19;;;;;;;9.13;4.70;;;;;;;0.21;78.11;96803.45;1729441;82;25881;-79
2021/12/20 02:03:34;;;;;;;6.83;4.10;;;;;;;0.21;77.93;96815.40;1729186;82;26390;-80
2021/12/20 02:06:05;;;;;;;8.85;4.37;;;;;;;0.22;77.86;96805.95;1706857;82;27551;-80
2021/12/20 02:08:29;;;;;;;7.92;4.25;;;;;;;0.18;77.76;96813.06;1701891;84;25847;-81
2021/12/20 02:10:59;;;;;;;10.35;4.25;;;;;;;0.15;77.71;96806.73;1702077;84;25790;-80
2021/12/20 02:13:29;;;;;;;11.57;5.20;;;;;;;0.18;77.68;96801.95;1702279;84;26495;-80
2021/12/20 02:15:57;;;;;;;9.43;4.45;;;;;;;0.18;77.58;96796.64;1702316;84;25759;-80
2021/12/20 02:18:25;;;;;;;7.03;3.77;;;;;;;0.19;77.68;96794.81;1702417;84;27455;-81
2021/12/20 02:20:52;;;;;;;8.68;4.65;;;;;;;0.21;77.62;96793.67;1702256;84;25747;-80
2021/12/20 02:23:18;;;;;;;8.78;3.95;;;;;;;0.16;77.58;96793.31;1702286;82;26376;-79
2021/12/20 02:25:45;;;;;;;7.92;3.70;;;;;;;0.18;77.47;96795.31;1702313;84;26456;-80
2021/12/20 02:28:15;;;;;;;7.70;3.83;;;;;;;0.20;77.35;96793.83;1702333;84;25799;-79
2021/12/20 02:38:49;;;;;;;8.15;3.65;;;;;;;0.22;77.20;96799.81;1702131;84;26314;-80
2021/12/20 02:41:20;;;;;;;7.33;3.60;;;;;;;0.24;77.10;96797.30;1700815;83;25649;-80
2021/12/20 02:43:55;;;;;;;6.57;3.20;;;;;;;0.30;77.05;96808.62;1721436;82;27407;-80
2021/12/20 02:49:08;;;;;;;7.53;3.98;;;;;;;0.31;76.79;96812.11;1709007;83;25710;-80
2021/12/20 02:51:35;;;;;;;8.33;4.15;;;;;;;0.26;76.71;96819.22;1720341;83;26552;-80
2021/12/20 02:54:05;;;;;;;6.75;3.70;;;;;;;0.20;76.62;96809.26;1697573;84;25729;-80
2021/12/20 02:56:32;;;;;;;8.13;3.72;;;;;;;0.17;76.58;96813.55;1697461;84;27464;-80
2021/12/20 02:58:59;;;;;;;8.00;3.60;;;;;;;0.11;76.55;96811.56;1704836;83;25787;-79
2021/12/20 03:01:26;;;;;;;7.95;2.90;;;;;;;0.09;76.49;96815.36;1697495;84;25752;-80
2021/12/20 03:03:56;;;;;;;6.87;3.17;;;;;;;0.11;76.63;96814.22;1697422;84;25641;-81
2021/12/20 03:06:30;;;;;;;6.25;3.70;;;;;;;0.15;76.50;96826.15;1697538;84;25702;-79
2021/12/20 03:08:57;;;;;;;9.03;3.37;;;;;;;0.12;76.37;96805.75;1697522;83;27742;-79
2021/12/20 03:11:27;;;;;;;8.18;4.03;;;;;;;0.13;76.41;96805.57;1697440;83;25296;-80
2021/12/20 03:14:08;;;;;;;10.08;3.90;;;;;;;0.15;76.33;96808.89;1697518;84;25763;-79
2021/12/20 03:16:26;;;;;;;11.30;3.85;;;;;;;0.19;76.30;96812.91;1696051;83;25939;-80
2021/12/20 03:18:52;;;;;;;14.33;4.55;;;;;;;0.24;76.24;96819.87;1697573;83;25305;-80
2021/12/20 03:21:19;;;;;;;8.35;3.90;;;;;;;0.25;76.24;96818.88;1697495;83;28055;-80
2021/12/20 03:23:45;;;;;;;6.33;3.77;;;;;;;0.27;76.25;96814.24;1696950;83;25878;-80
2021/12/20 03:26:12;;;;;;;7.60;4.30;;;;;;;0.31;76.22;96818.25;1697490;83;25793;-80
2021/12/20 03:28:39;;;;;;;9.05;4.12;;;;;;;0.32;76.17;96817.26;1697492;84;26408;-80
2021/12/20 03:31:05;;;;;;;7.95;4.00;;;;;;;0.26;76.05;96819.22;1697226;84;25856;-80
2021/12/20 03:33:32;;;;;;;6.47;4.17;;;;;;;0.23;76.08;96816.91;1697583;83;27602;-80
2021/12/20 03:35:58;;;;;;;6.25;4.22;;;;;;;0.28;76.09;96817.23;1697441;84;25793;-80
2021/12/20 03:38:25;;;;;;;8.20;3.70;;;;;;;0.29;76.01;96825.53;1697447;83;25790;-80
2021/12/20 03:40:52;;;;;;;6.40;3.75;;;;;;;0.25;75.96;96826.84;1693374;83;26432;-81
2021/12/20 03:43:19;;;;;;;7.78;4.25;;;;;;;0.17;75.88;96830.80;1692436;84;25666;-80
2021/12/20 03:45:49;;;;;;;10.65;4.55;;;;;;;0.17;75.94;96820.19;1692631;84;27413;-80
2021/12/20 03:48:14;;;;;;;9.55;4.45;;;;;;;0.18;75.96;96828.48;1692352;84;25821;-80
2021/12/20 03:50:41;;;;;;;8.13;4.05;;;;;;;0.15;76.01;96824.82;1692756;84;26238;-79
2021/12/20 03:53:07;;;;;;;7.95;4.20;;;;;;;0.15;76.03;96836.77;1692700;84;25773;-80
2021/12/20 03:55:34;;;;;;;7.33;3.85;;;;;;;0.20;76.02;96830.98;1692699;84;25761;-80
2021/12/20 03:58:00;;;;;;;7.67;3.92;;;;;;;0.21;75.92;96825.52;1692709;84;28252;-80
2021/12/20 04:00:27;;;;;;;8.73;4.05;;;;;;;0.22;75.92;96823.20;1692633;84;26312;-79
2021/12/20 04:02:53;;;;;;;8.68;3.95;;;;;;;0.25;75.87;96828.66;1692710;84;25795;-80
2021/12/20 04:05:20;;;;;;;6.72;3.65;;;;;;;0.26;75.76;96825.02;1692715;84;25658;-80
2021/12/20 04:07:46;;;;;;;6.30;3.87;;;;;;;0.25;75.69;96832.64;1692800;84;25750;-80
2021/12/20 04:10:13;;;;;;;10.68;3.80;;;;;;;0.23;75.64;96825.36;1692725;84;28291;-80
2021/12/20 04:12:40;;;;;;;7.78;3.95;;;;;;;0.24;75.63;96821.19;1692506;84;26202;-80
2021/12/20 04:15:07;;;;;;;7.65;3.67;;;;;;;0.27;75.65;96813.41;1692754;84;25799;-80
2021/12/20 04:17:34;;;;;;;7.80;3.95;;;;;;;0.31;75.68;96814.27;1692601;84;25752;-80
2021/12/20 04:20:02;;;;;;;6.42;3.60;;;;;;;0.28;75.54;96818.56;1692745;83;25789;-80
2021/12/20 04:22:28;;;;;;;6.37;3.62;;;;;;;0.26;75.44;96822.36;1692627;84;28045;-80
2021/12/20 04:24:55;;;;;;;4.90;3.15;;;;;;;0.25;75.47;96821.53;1692479;84;25869;-80
2021/12/20 04:27:21;;;;;;;7.12;3.25;;;;;;;0.23;75.31;96815.58;1692536;84;25749;-80
2021/12/20 04:29:49;;;;;;;8.28;3.02;;;;;;;0.22;75.32;96815.73;1692415;84;25695;-80
2021/12/20 04:32:16;;;;;;;5.62;2.77;;;;;;;0.26;75.29;96810.42;1692386;84;25882;-80
2021/12/20 04:34:42;;;;;;;5.78;2.67;;;;;;;0.26;75.13;96803.29;1692715;84;28148;-79
2021/12/20 04:37:09;;;;;;;7.25;2.90;;;;;;;0.26;75.01;96809.09;1692487;84;25800;-80
2021/12/20 04:39:36;;;;;;;8.35;2.80;;;;;;;0.26;74.89;96810.42;1691216;84;25359;-79
2021/12/20 04:42:03;;;;;;;5.30;2.58;;;;;;;0.25;74.85;96805.61;1671982;84;25874;-80
2021/12/20 04:44:30;;;;;;;7.10;3.37;;;;;;;0.26;74.79;96813.91;1653253;86;25925;-80
2021/12/20 04:46:57;;;;;;;9.73;3.10;;;;;;;0.26;74.76;96813.91;1653393;85;27377;-79
2021/12/20 04:49:24;;;;;;;6.10;3.22;;;;;;;0.25;74.77;96822.86;1653444;86;25771;-79
2021/12/20 04:51:55;;;;;;;5.80;2.90;;;;;;;0.24;74.82;96823.84;1658628;85;25676;-79
2021/12/20 04:54:22;;;;;;;6.70;3.47;;;;;;;0.23;74.86;96823.55;1653358;86;26400;-81
2021/12/20 04:56:48;;;;;;;8.28;3.10;;;;;;;0.25;75.01;96825.52;1653360;86;26363;-80
2021/12/20 04:59:15;;;;;;;6.50;3.37;;;;;;;0.27;74.99;96827.52;1653479;86;28030;-80
2021/12/20 05:01:42;;;;;;;7.20;3.50;;;;;;;0.20;74.87;96832.31;1653283;86;25895;-81
2021/12/20 05:04:08;;;;;;;5.15;3.20;;;;;;;0.21;75.04;96840.61;1653335;86;25812;-80
2021/12/20 05:06:35;;;;;;;5.03;3.02;;;;;;;0.16;75.08;96846.39;1653450;86;26514;-80
2021/12/20 05:09:04;;;;;;;7.12;2.92;;;;;;;0.17;75.26;96840.09;1653390;86;25784;-80
2021/12/20 05:11:33;;;;;;;7.00;4.10;;;;;;;0.17;75.33;96836.11;1653390;86;27382;-80
2021/12/20 05:14:01;;;;;;;7.25;3.65;;;;;;;0.17;75.30;96848.06;1653226;86;25795;-81
2021/12/20 05:16:28;;;;;;;7.67;3.77;;;;;;;0.14;75.43;96852.84;1653279;86;25571;-80
2021/12/20 05:18:54;;;;;;;7.10;2.83;;;;;;;0.06;75.58;96851.50;1653048;86;25754;-81
2021/12/20 05:21:21;;;;;;;8.60;3.92;;;;;;;0.00;75.79;96854.31;1653083;86;25822;-80
2021/12/20 05:23:47;;;;;;;7.35;4.20;;;;;;;-0.10;75.96;96859.71;1653323;86;27436;-80
2021/12/20 05:26:14;;;;;;;5.92;3.92;;;;;;;-0.16;76.28;96856.88;1653169;86;25781;-80
2021/12/20 05:28:40;;;;;;;7.97;4.10;;;;;;;-0.20;76.46;96869.61;1653262;86;25789;-80
2021/12/20 05:31:07;;;;;;;7.47;4.40;;;;;;;-0.21;76.63;96867.95;1653187;86;25741;-80
2021/12/20 05:33:34;;;;;;;12.28;5.03;;;;;;;-0.22;76.65;96860.14;1653210;86;25731;-80
2021/12/20 05:36:01;;;;;;;8.90;4.62;;;;;;;-0.25;76.73;96853.84;1653187;86;27470;-80
2021/12/20 05:38:27;;;;;;;8.03;4.65;;;;;;;-0.21;76.78;96857.83;1653183;86;25764;-80
2021/12/20 05:40:54;;;;;;;11.78;5.87;;;;;;;-0.23;76.82;96857.98;1671443;83;25319;-80
2021/12/20 05:43:21;;;;;;;12.13;6.35;;;;;;;-0.18;76.72;96857.52;1692503;84;26544;-79
2021/12/20 05:45:47;;;;;;;10.70;5.22;;;;;;;-0.21;76.49;96853.36;1692471;84;25651;-80
2021/12/20 05:48:14;;;;;;;12.28;6.20;;;;;;;-0.17;76.37;96864.49;1692530;84;27618;-80
2021/12/20 05:50:40;;;;;;;9.75;4.58;;;;;;;-0.18;76.27;96868.97;1692457;84;25734;-80
2021/12/20 05:53:07;;;;;;;7.25;3.50;;;;;;;-0.17;76.17;96865.33;1692495;84;25799;-80
2021/12/20 05:55:34;;;;;;;7.45;3.25;;;;;;;-0.14;75.99;96858.88;1692525;84;25774;-80
2021/12/20 05:58:00;;;;;;;5.80;3.12;;;;;;;-0.15;75.97;96854.56;1692626;83;25730;-80
2021/12/20 06:00:27;;;;;;;4.87;3.08;;;;;;;-0.17;76.02;96853.39;1692525;84;27443;-80
2021/12/20 06:02:53;;;;;;;7.95;3.50;;;;;;;-0.13;76.22;96863.20;1692347;84;25746;-80
2021/12/20 06:05:21;;;;;;;8.55;3.87;;;;;;;-0.13;76.07;96869.83;1692536;84;25735;-79
2021/12/20 06:07:48;;;;;;;10.65;4.17;;;;;;;-0.17;76.22;96872.45;1692493;84;26486;-80
2021/12/20 06:10:18;;;;;;;7.90;4.20;;;;;;;-0.19;76.25;96877.08;1692540;84;26393;-80
2021/12/20 06:12:45;;;;;;;11.53;5.03;;;;;;;-0.23;76.27;96869.91;1692572;84;27315;-80
2021/12/20 06:15:12;;;;;;;11.50;5.22;;;;;;;-0.25;76.42;96872.41;1692381;84;25799;-80
2021/12/20 06:17:40;;;;;;;15.03;6.75;;;;;;;-0.26;76.56;96873.40;1692484;84;25758;-80
2021/12/20 06:20:11;;;;;;;16.37;6.92;;;;;;;-0.33;76.63;96883.78;1692227;84;26038;-79
2021/12/20 06:22:37;;;;;;;12.07;6.10;;;;;;;-0.36;76.73;96884.92;1692579;84;25682;-80
2021/12/20 06:25:05;;;;;;;23.18;10.88;;;;;;;-0.33;76.87;96887.77;1692530;84;27455;-80
2021/12/20 06:27:32;;;;;;;17.70;8.48;;;;;;;-0.33;76.97;96908.15;1692486;84;25806;-80
2021/12/20 06:29:58;;;;;;;16.97;7.35;;;;;;;-0.36;77.20;96911.45;1692470;83;25769;-80
2021/12/20 06:32:25;;;;;;;13.55;6.60;;;;;;;-0.37;77.17;96907.16;1692580;84;26516;-80
2021/12/20 06:34:51;;;;;;;41.60;14.30;;;;;;;-0.36;77.24;96922.05;1692604;84;25719;-79
2021/12/20 06:37:18;;;;;;;40.92;16.65;;;;;;;-0.30;77.27;96929.06;1692508;83;26769;-79
2021/12/20 06:39:44;;;;;;;18.55;8.48;;;;;;;-0.25;77.29;96931.59;1692469;84;25723;-80
2021/12/20 06:42:11;;;;;;;36.05;14.13;;;;;;;-0.20;77.24;96931.95;1703187;83;25733;-80
2021/12/20 06:44:38;;;;;;;38.65;18.57;;;;;;;-0.18;77.26;96933.95;1705286;83;25745;-79
2021/12/20 06:47:05;;;;;;;17.55;8.73;;;;;;;-0.20;77.22;96941.72;1705410;84;25718;-79
2021/12/20 06:49:31;;;;;;;13.55;8.10;;;;;;;-0.19;77.32;96943.39;1705376;83;27212;-80
2021/12/20 06:52:00;;;;;;;13.65;7.72;;;;;;;-0.21;77.27;96936.91;1705273;83;25482;-80
2021/12/20 06:54:26;;;;;;;15.50;7.05;;;;;;;-0.20;77.41;96933.77;1704934;83;25800;-80
2021/12/20 06:56:53;;;;;;;15.90;8.25;;;;;;;-0.14;77.52;96938.47;1704694;83;25692;-80
2021/12/20 06:59:19;;;;;;;18.98;9.00;;;;;;;-0.13;77.51;96946.77;1701303;83;25752;-80
2021/12/20 07:01:46;;;;;;;23.05;10.82;;;;;;;-0.17;77.53;96948.89;1699702;83;27440;-79
2021/12/20 07:04:13;;;;;;;17.57;8.73;;;;;;;-0.17;77.52;96948.05;1699562;83;25667;-80
2021/12/20 07:06:40;;;;;;;26.75;12.35;;;;;;;-0.23;77.46;96943.35;1699750;83;25328;-80
2021/12/20 07:09:07;;;;;;;13.43;7.30;;;;;;;-0.25;77.61;96937.40;1699757;83;25785;-80
2021/12/20 07:11:34;;;;;;;12.18;6.58;;;;;;;-0.24;77.58;96933.77;1699818;83;25747;-80
2021/12/20 07:14:01;;;;;;;13.28;5.97;;;;;;;-0.20;77.52;96949.68;1699766;84;27645;-80
2021/12/20 07:16:32;;;;;;;14.15;6.05;;;;;;;-0.19;77.53;96946.88;1699578;83;25704;-80
2021/12/20 07:18:55;;;;;;;13.83;6.03;;;;;;;-0.15;77.66;96952.72;1701257;82;25333;-80
2021/12/20 07:21:22;;;;;;;11.45;5.92;;;;;;;-0.15;77.63;96949.56;1708054;82;25806;-80
2021/12/20 07:23:49;;;;;;;31.42;16.32;;;;;;;-0.17;77.69;96952.03;1705402;83;25742;-80
2021/12/20 07:26:15;;;;;;;24.70;11.50;;;;;;;-0.16;77.80;96956.35;1705371;83;27531;-80
2021/12/20 07:28:43;;;;;;;15.32;8.13;;;;;;;-0.17;77.82;96952.03;1705313;84;25856;-80
2021/12/20 07:31:12;;;;;;;60.78;22.37;;;;;;;-0.21;77.82;96954.16;1705312;83;25749;-79
2021/12/20 07:33:40;;;;;;;72.65;29.95;;;;;;;-0.20;77.98;96954.98;1701344;84;25797;-80
2021/12/20 07:36:07;;;;;;;38.70;18.27;;;;;;;-0.23;77.99;96955.29;1701370;83;25816;-80
2021/12/20 07:38:35;;;;;;;16.23;8.00;;;;;;;-0.25;78.15;96957.29;1701850;83;28210;-80
2021/12/20 07:41:03;;;;;;;20.00;9.83;;;;;;;-0.27;78.22;96957.94;1678491;84;25851;-80
2021/12/20 07:43:30;;;;;;;19.90;11.73;;;;;;;-0.34;78.42;96955.05;1664392;86;25766;-79
2021/12/20 07:45:56;;;;;;;21.42;11.12;;;;;;;-0.39;78.53;96958.19;1669995;84;25795;-79
2021/12/20 07:48:23;;;;;;;41.37;14.70;;;;;;;-0.34;78.74;96959.52;1669987;85;25743;-79
2021/12/20 07:50:51;;;;;;;54.33;22.30;;;;;;;-0.30;78.81;96962.22;1664421;86;27472;-80
2021/12/20 07:53:18;;;;;;;15.93;8.88;;;;;;;-0.29;78.76;96962.55;1669852;85;25296;-79
2021/12/20 07:55:45;;;;;;;10.18;6.62;;;;;;;-0.33;78.72;96959.86;1641325;86;25794;-80
2021/12/20 07:58:12;;;;;;;11.93;7.08;;;;;;;-0.35;78.90;96965.31;1641257;87;26610;-80
2021/12/20 08:00:39;;;;;;;10.05;6.55;;;;;;;-0.32;79.03;96970.32;1641327;87;25735;-80
2021/12/20 08:03:05;;;;;;;13.43;7.08;;;;;;;-0.30;79.05;96966.19;1641313;87;27386;-80
2021/12/20 08:05:32;;;;;;;14.93;8.70;;;;;;;-0.37;79.07;96969.48;1659660;86;25711;-80
2021/12/20 08:07:59;;;;;;;12.58;6.50;;;;;;;-0.46;79.15;96980.15;1659752;86;25767;-80
2021/12/20 08:10:28;;;;;;;37.40;17.37;;;;;;;-0.50;79.22;96976.99;1659765;86;25909;-79
2021/12/20 08:12:55;;;;;;;32.65;15.18;;;;;;;-0.50;79.41;96974.34;1669936;85;26101;-80
2021/12/20 08:15:22;;;;;;;18.67;9.68;;;;;;;-0.46;79.45;96969.05;1669889;85;28046;-80
2021/12/20 08:17:51;;;;;;;12.65;7.83;;;;;;;-0.39;79.45;96971.45;1641236;87;25805;-80
2021/12/20 08:20:20;;;;;;;10.53;6.30;;;;;;;-0.30;79.37;96972.83;1659586;85;25816;-80
2021/12/20 08:22:47;;;;;;;10.08;6.25;;;;;;;-0.27;79.24;96967.22;1659797;86;25696;-80
2021/12/20 08:25:16;;;;;;;35.05;14.18;;;;;;;-0.29;79.06;96966.53;1659724;86;25726;-80
2021/12/20 08:27:43;;;;;;;38.02;16.17;;;;;;;-0.28;79.00;96957.59;1669895;85;27380;-80
2021/12/20 08:30:10;;;;;;;42.83;19.95;;;;;;;-0.27;78.90;96960.59;1669835;85;25705;-80
2021/12/20 08:32:37;;;;;;;24.85;12.07;;;;;;;-0.22;78.90;96963.59;1659760;86;25730;-80
2021/12/20 08:35:06;;;;;;;15.32;8.45;;;;;;;-0.16;78.88;96969.61;1669950;85;26527;-80
2021/12/20 08:37:33;;;;;;;13.48;7.35;;;;;;;-0.10;78.85;96975.61;1641310;87;25722;-80
2021/12/20 08:40:02;;;;;;;11.33;6.15;;;;;;;-0.09;78.70;96974.13;1664369;86;27561;-80
2021/12/20 08:42:28;;;;;;;13.90;7.08;;;;;;;-0.08;78.57;96988.23;1664016;85;25810;-80
2021/12/20 08:44:55;;;;;;;9.38;5.92;;;;;;;-0.06;78.50;96983.61;1665065;86;26067;-80
2021/12/20 08:47:22;;;;;;;10.08;5.03;;;;;;;-0.01;78.49;96995.93;1665061;86;25763;-80
2021/12/20 08:49:49;;;;;;;10.03;5.37;;;;;;;0.01;78.32;96991.27;1665071;86;25725;-81
2021/12/20 08:52:15;;;;;;;8.35;5.03;;;;;;;0.00;78.31;96997.59;1665035;86;27442;-79
2021/12/20 08:54:42;;;;;;;14.60;7.83;;;;;;;0.05;78.28;96991.80;1664934;86;25792;-81
2021/12/20 08:57:09;;;;;;;42.25;16.80;;;;;;;0.01;78.16;96988.62;1665053;86;25913;-80
2021/12/20 08:59:36;;;;;;;33.10;16.00;;;;;;;0.03;78.22;96993.28;1664784;86;26448;-80
2021/12/20 09:02:06;;;;;;;33.13;14.87;;;;;;;0.05;78.25;96995.78;1665118;86;25734;-80
2021/12/20 09:04:32;;;;;;;35.45;16.52;;;;;;;0.04;78.20;96994.95;1665012;86;28405;-80
2021/12/20 09:06:59;;;;;;;26.57;14.68;;;;;;;-0.06;78.20;96995.55;1664949;86;25909;-79
2021/12/20 09:09:25;;;;;;;21.50;11.48;;;;;;;-0.10;78.43;96991.53;1665066;86;25297;-80
2021/12/20 09:11:52;;;;;;;18.55;9.30;;;;;;;-0.08;78.52;96995.70;1665090;86;26117;-80
2021/12/20 09:14:19;;;;;;;26.33;11.40;;;;;;;-0.06;78.59;96992.89;1665067;86;25771;-80
2021/12/20 09:16:45;;;;;;;34.43;13.83;;;;;;;-0.02;78.69;97003.55;1665081;86;27640;-79
2021/12/20 09:19:12;;;;;;;38.53;17.52;;;;;;;0.00;78.65;96992.29;1664961;86;25807;-80
2021/12/20 09:21:38;;;;;;;29.95;14.50;;;;;;;0.03;78.74;96992.45;1665114;86;25771;-80
2021/12/20 09:24:07;;;;;;;22.07;11.22;;;;;;;0.02;78.69;96990.28;1664988;86;25778;-80
2021/12/20 09:26:34;;;;;;;23.25;12.70;;;;;;;0.00;78.72;96993.62;1665196;86;25828;-80
2021/12/20 09:29:00;;;;;;;20.10;10.43;;;;;;;0.00;78.81;96996.27;1665064;86;28151;-80
2021/12/20 09:31:27;;;;;;;21.75;11.35;;;;;;;0.02;78.85;96996.92;1664953;86;25943;-81
2021/12/20 09:33:55;;;;;;;16.97;10.20;;;;;;;0.06;78.86;96995.63;1665097;86;25960;-81
2021/12/20 09:36:28;;;;;;;21.82;11.10;;;;;;;0.04;78.77;96991.46;1665042;86;26414;-80
2021/12/20 09:38:50;;;;;;;20.92;12.82;;;;;;;0.02;78.76;96988.13;1664150;86;25253;-80
2021/12/20 09:41:59;;;;;;;18.67;10.45;;;;;;;-0.01;78.87;96988.80;1666051;83;28142;-80
2021/12/20 09:43:51;;;;;;;15.95;10.08;;;;;;;0.00;78.88;96985.66;1677030;85;25974;-80
2021/12/20 09:46:24;;;;;;;13.25;8.28;;;;;;;-0.01;78.92;96994.11;1677871;85;25735;-80
2021/12/20 09:48:52;;;;;;;10.72;6.87;;;;;;;0.02;79.06;96994.76;1676163;85;43871;-80
2021/12/20 09:51:19;;;;;;;8.18;6.25;;;;;;;0.02;78.95;96991.61;1676980;84;25826;-80
2021/12/20 09:53:46;;;;;;;10.10;6.55;;;;;;;0.05;78.87;96988.66;1677409;85;27509;-80
2021/12/20 09:56:13;;;;;;;16.75;8.73;;;;;;;-0.01;78.76;96990.63;1677380;84;25751;-80
2021/12/20 09:58:41;;;;;;;52.17;19.40;;;;;;;-0.04;78.76;96989.59;1677369;85;25711;-80
2021/12/20 10:01:12;;;;;;;38.83;16.95;;;;;;;-0.02;78.83;96988.95;1677452;85;26417;-80
2021/12/20 10:03:39;;;;;;;32.88;14.68;;;;;;;0.02;78.78;96989.45;1677884;85;25716;-80
2021/12/20 10:06:06;;;;;;;66.25;21.55;;;;;;;0.05;78.70;96992.63;1677929;85;26858;-81
2021/12/20 10:08:48;;;;;;;40.00;16.85;;;;;;;0.08;78.59;96999.46;1677857;85;25802;-80
2021/12/20 10:11:06;;;;;;;25.57;13.13;;;;;;;0.07;78.51;96995.97;1677134;85;25730;-80
2021/12/20 10:13:38;;;;;;;17.95;12.10;;;;;;;0.09;78.47;96990.02;1677883;84;26582;-80
2021/12/20 10:16:20;;;;;;;56.98;23.87;;;;;;;0.09;78.43;96996.66;1678033;84;25743;-80
2021/12/20 10:18:48;;;;;;;70.15;24.65;;;;;;;0.07;78.32;97001.28;1677332;85;27462;-84
2021/12/20 10:21:16;;;;;;;37.93;16.97;;;;;;;0.07;78.36;96991.98;1677752;85;25249;-80
2021/12/20 10:23:50;;;;;;;45.03;23.15;;;;;;;0.02;78.34;96994.27;1677905;85;25787;-80
2021/12/20 10:26:20;;;;;;;36.42;20.77;;;;;;;-0.02;78.41;97000.41;1677886;85;25666;-80
2021/12/20 10:28:55;;;;;;;26.30;15.08;;;;;;;-0.01;78.54;96998.58;1677868;85;25687;-80
2021/12/20 10:31:24;;;;;;;29.48;14.33;;;;;;;0.02;78.63;96998.25;1677541;85;27437;-80
2021/12/20 10:34:01;;;;;;;18.77;11.27;;;;;;;0.02;78.65;97002.23;1678078;85;25858;-80
2021/12/20 10:36:28;;;;;;;18.87;11.30;;;;;;;-0.03;78.61;96994.75;1677404;85;26436;-80
2021/12/20 10:38:57;;;;;;;15.30;8.68;;;;;;;0.06;78.79;97006.25;1677913;84;25859;-80
2021/12/20 10:41:33;;;;;;;14.10;9.18;;;;;;;0.08;78.88;97005.60;1677951;85;25262;-80
2021/12/20 10:44:01;;;;;;;14.78;9.65;;;;;;;0.04;78.88;97007.38;1677883;84;28305;-80
2021/12/20 10:46:29;;;;;;;13.32;8.48;;;;;;;0.03;78.99;97007.05;1677631;85;26317;-80
2021/12/20 10:49:14;;;;;;;12.73;8.33;;;;;;;0.02;78.95;97004.05;1677983;85;25792;-80
2021/12/20 10:51:45;;;;;;;17.45;8.30;;;;;;;0.00;78.90;97006.88;1677868;85;25763;-80
2021/12/20 10:54:17;;;;;;;15.95;8.40;;;;;;;-0.01;78.86;97005.22;1677896;85;25747;-80
2021/12/20 10:57:01;;;;;;;14.28;9.30;;;;;;;-0.08;78.85;97001.50;1678126;85;28233;-81
2021/12/20 10:59:35;;;;;;;17.02;10.03;;;;;;;-0.02;78.96;97006.20;1677336;85;25827;-80
2021/12/20 11:04:40;;;;;;;15.25;8.83;;;;;;;0.01;78.82;96996.58;1677871;84;26242;-81
2021/12/20 11:09:41;;;;;;;12.30;6.65;;;;;;;0.11;78.88;97005.79;1677984;85;27359;-80
2021/12/20 11:12:15;;;;;;;10.70;6.35;;;;;;;0.09;78.71;96997.98;1677041;85;25806;-81
2021/12/20 11:14:49;;;;;;;11.45;6.53;;;;;;;0.07;78.52;97011.89;1677954;84;25679;-82
2021/12/20 11:17:19;;;;;;;13.85;7.03;;;;;;;0.02;78.42;97010.68;1677922;84;25772;-80
2021/12/20 11:19:52;;;;;;;11.55;8.03;;;;;;;-0.01;78.48;97003.39;1677839;85;25711;-80
2021/12/20 11:22:24;;;;;;;;;;;;;;;0.02;78.51;97010.19;1680379;84;28021;-80
2021/12/20 11:25:00;;;;;;;12.43;6.40;;;;;;;0.05;78.48;97007.23;1677820;84;25324;-80
2021/12/20 11:27:37;;;;;;;9.65;6.47;;;;;;;0.02;78.47;97004.88;1677237;85;25759;-80
2021/12/20 11:30:15;;;;;;;12.23;7.08;;;;;;;0.06;78.50;97016.03;1677586;85;25834;-80
2021/12/20 11:32:43;;;;;;;9.40;6.75;;;;;;;0.08;78.53;97002.95;1677873;85;25329;-80
2021/12/20 11:35:10;;;;;;;12.50;7.75;;;;;;;0.04;78.41;97008.22;1677607;85;27492;-80
2021/12/20 11:37:37;;;;;;;13.32;7.37;;;;;;;0.06;78.45;97006.25;1677830;85;25817;-82
2021/12/20 11:40:08;;;;;;;10.95;7.62;;;;;;;0.05;78.40;97001.92;1677866;85;25743;-80
2021/12/20 11:42:34;;;;;;;12.15;7.80;;;;;;;0.01;78.37;97004.54;1677715;85;25818;-81
2021/12/20 11:45:05;;;;;;;10.15;7.28;;;;;;;0.01;78.41;97004.54;1677839;85;25784;-80
2021/12/20 11:47:43;;;;;;;13.55;8.45;;;;;;;0.05;78.47;97000.59;1677903;85;28055;-80
2021/12/20 11:50:14;;;;;;;20.80;9.28;;;;;;;0.10;78.42;97004.95;1677887;85;25743;-80
2021/12/20 11:52:44;;;;;;;18.32;8.78;;;;;;;0.11;78.34;96999.16;1677908;84;25742;-83
2021/12/20 11:55:25;;;;;;;15.70;8.45;;;;;;;0.13;78.34;96999.81;1677824;85;25861;-80
2021/12/20 11:57:59;;;;;;;21.55;12.18;;;;;;;0.07;78.23;97001.28;1677911;85;25265;-80